Time;durP1;ratioP1;P1;durP2;ratioP2;P2;SDS_P1;SDS_P2;PMS_P1;PMS_P2;Temp;Humidity;BMP_temperature;BMP_pressure;BME280_temperature;BME280_humidity;BME280_pressure;Samples;Min_cycle;Max_cycle;Signal;HPM_P1;HPM_P2
2021/11/28 00:00:51;;;;;;;3.00;2.03;;;6.50;99.90;;;;;;4140368;28;20057;-90
2021/11/28 00:02:55;;;;;;;2.17;2.17;;;6.40;99.90;;;;;;4148934;28;20034;-90
2021/11/28 00:04:59;;;;;;;1.98;1.98;;;6.30;99.90;;;;;;4146988;28;20064;-89
2021/11/28 00:07:05;;;;;;;1.90;1.90;;;6.30;99.90;;;;;;4113466;28;20042;-90
2021/11/28 00:11:32;;;;;;;2.50;2.50;;;6.20;99.90;;;;;;4155230;28;20041;-91
2021/11/28 00:13:48;;;;;;;2.33;2.33;;;6.10;99.90;;;;;;4138601;28;20069;-90
2021/11/28 00:15:53;;;;;;;2.50;2.50;;;6.10;99.90;;;;;;4145000;28;20057;-92
2021/11/28 00:17:55;;;;;;;2.47;2.47;;;6.10;99.90;;;;;;4159481;28;20487;-91
2021/11/28 00:19:57;;;;;;;3.20;3.10;;;6.00;99.90;;;;;;4126516;28;20121;-92
2021/11/28 00:21:59;;;;;;;2.92;2.83;;;6.10;99.90;;;;;;4113686;28;20082;-91
2021/11/28 00:24:36;;;;;;;3.20;3.10;;;6.10;99.90;;;;;;4141751;28;20086;-91
2021/11/28 00:26:38;;;;;;;3.20;2.70;;;6.20;99.90;;;;;;4084319;29;20048;-91
2021/11/28 00:28:41;;;;;;;2.25;2.25;;;6.30;99.90;;;;;;4100149;28;20051;-91
2021/11/28 00:30:45;;;;;;;3.60;2.53;;;6.40;99.90;;;;;;4103906;28;20035;-92
2021/11/28 00:32:48;;;;;;;2.15;2.03;;;6.50;99.90;;;;;;4081489;29;20441;-91
2021/11/28 00:34:51;;;;;;;;;;;6.60;99.90;;;;;;4084688;29;20126;-91
2021/11/28 00:36:54;;;;;;;2.05;1.95;;;6.60;99.90;;;;;;4079917;29;19990;-91
2021/11/28 00:38:56;;;;;;;2.90;2.80;;;6.60;99.90;;;;;;4100209;28;20094;-91
2021/11/28 00:40:58;;;;;;;2.60;2.50;;;6.60;99.90;;;;;;4115052;28;20116;-91
2021/11/28 00:43:02;;;;;;;2.60;2.45;;;6.70;99.90;;;;;;4103301;28;20043;-92
2021/11/28 00:45:05;;;;;;;1.83;1.73;;;6.60;99.90;;;;;;4090120;29;20059;-91
2021/11/28 00:47:08;;;;;;;2.42;2.33;;;6.60;99.90;;;;;;4099452;28;20090;-92
2021/11/28 00:49:17;;;;;;;3.17;3.08;;;6.50;99.90;;;;;;4122991;28;20031;-91
2021/11/28 00:53:22;;;;;;;2.60;2.50;;;6.50;99.90;;;;;;4096007;29;20074;-91
2021/11/28 00:55:25;;;;;;;2.70;2.53;;;6.50;99.90;;;;;;4101903;28;20073;-91
2021/11/28 00:57:27;;;;;;;2.88;2.75;;;6.50;99.90;;;;;;4102509;28;20582;-91
2021/11/28 00:59:29;;;;;;;2.35;2.30;;;6.50;99.90;;;;;;4088157;29;20110;-91
2021/11/28 01:01:34;;;;;;;2.90;2.80;;;6.50;99.90;;;;;;4107173;28;20054;-90
2021/11/28 01:03:36;;;;;;;1.88;1.88;;;6.40;99.90;;;;;;4105142;28;20423;-91
2021/11/28 01:05:38;;;;;;;2.00;2.00;;;6.40;99.90;;;;;;4149261;28;20034;-91
2021/11/28 01:07:41;;;;;;;2.70;2.65;;;6.40;99.90;;;;;;4138151;28;20533;-93
2021/11/28 01:09:44;;;;;;;7.78;2.67;;;6.40;99.90;;;;;;4134802;28;20093;-91
2021/11/28 01:11:47;;;;;;;2.17;2.17;;;6.40;99.90;;;;;;4146745;28;20034;-91
2021/11/28 01:14:15;;;;;;;1.60;1.60;;;6.40;99.90;;;;;;4110729;28;20070;-91
2021/11/28 01:16:19;;;;;;;1.85;1.85;;;6.40;99.90;;;;;;4101094;28;20862;-91
2021/11/28 01:18:23;;;;;;;2.05;2.05;;;6.40;99.90;;;;;;4134481;28;20057;-91
2021/11/28 01:20:26;;;;;;;2.53;2.00;;;6.40;99.90;;;;;;4113137;28;20110;-91
2021/11/28 01:22:54;;;;;;;1.92;1.83;;;6.40;99.90;;;;;;4113609;28;20039;-91
2021/11/28 01:24:57;;;;;;;2.28;2.28;;;6.40;99.90;;;;;;4097900;28;20047;-91
2021/11/28 01:27:03;;;;;;;1.65;1.65;;;6.50;99.90;;;;;;4094527;29;20055;-92
2021/11/28 01:29:06;;;;;;;1.58;1.52;;;6.50;99.90;;;;;;4094875;29;20109;-91
2021/11/28 01:31:10;;;;;;;2.08;2.08;;;6.50;99.90;;;;;;4093920;29;20031;-91
2021/11/28 01:33:14;;;;;;;1.88;1.88;;;6.50;99.90;;;;;;4079202;29;20616;-91
2021/11/28 01:35:18;;;;;;;2.05;1.90;;;6.60;99.90;;;;;;4095402;28;20035;-90
2021/11/28 01:37:21;;;;;;;2.42;1.90;;;6.60;99.90;;;;;;4112422;28;20051;-92
2021/11/28 01:39:23;;;;;;;1.95;1.95;;;6.60;99.90;;;;;;4090600;29;20058;-92
2021/11/28 01:41:25;;;;;;;1.80;1.80;;;6.50;99.90;;;;;;4080915;29;20059;-91
2021/11/28 01:43:29;;;;;;;1.92;1.92;;;6.50;99.90;;;;;;4096213;28;20047;-92
2021/11/28 01:45:35;;;;;;;2.17;2.17;;;6.50;99.90;;;;;;4107413;28;20091;-91
2021/11/28 01:47:37;;;;;;;1.85;1.75;;;6.50;99.90;;;;;;4086046;29;20138;-91
2021/11/28 01:49:40;;;;;;;3.50;3.20;;;6.60;99.90;;;;;;4109451;28;20047;-92
2021/11/28 01:51:43;;;;;;;2.15;2.15;;;6.50;99.90;;;;;;4078811;29;20557;-92
2021/11/28 01:53:48;;;;;;;1.83;1.83;;;6.50;99.90;;;;;;4093925;28;20151;-92
2021/11/28 01:55:51;;;;;;;2.45;1.63;;;6.50;99.90;;;;;;4098227;28;20643;-91
2021/11/28 01:57:53;;;;;;;2.00;2.00;;;6.50;99.90;;;;;;4116069;28;20106;-92
2021/11/28 01:59:56;;;;;;;;;;;6.50;99.90;;;;;;4121276;28;20046;-91
2021/11/28 02:02:00;;;;;;;1.90;1.90;;;6.60;99.90;;;;;;4117797;28;19929;-89
2021/11/28 02:04:02;;;;;;;1.65;1.63;;;6.60;99.90;;;;;;4136836;28;20110;-90
2021/11/28 02:06:08;;;;;;;2.90;2.28;;;6.60;99.90;;;;;;4135395;28;20490;-88
2021/11/28 02:08:11;;;;;;;2.13;2.03;;;6.60;99.90;;;;;;4132491;28;20500;-89
2021/11/28 02:10:13;;;;;;;2.20;2.20;;;6.70;99.90;;;;;;4148458;28;20034;-89
2021/11/28 02:12:16;;;;;;;1.80;1.80;;;6.60;99.90;;;;;;4147921;28;20034;-89
2021/11/28 02:14:18;;;;;;;1.80;1.80;;;6.60;99.90;;;;;;4143206;28;20065;-89
2021/11/28 02:16:21;;;;;;;1.90;1.85;;;6.60;99.90;;;;;;4149936;28;20625;-89
2021/11/28 02:18:25;;;;;;;;;;;6.60;99.90;;;;;;4148881;28;20041;-90
2021/11/28 02:20:57;;;;;;;1.65;1.65;;;6.60;99.90;;;;;;4114623;28;20008;-89
2021/11/28 02:23:01;;;;;;;1.80;1.70;;;6.60;99.90;;;;;;4066626;29;20051;-89
2021/11/28 02:25:06;;;;;;;2.00;2.00;;;6.60;99.90;;;;;;4079074;29;20055;-89
2021/11/28 02:27:11;;;;;;;2.35;2.25;;;6.60;99.90;;;;;;4081001;29;20059;-89
2021/11/28 02:29:13;;;;;;;1.80;1.80;;;6.60;99.90;;;;;;4065939;29;20100;-89
2021/11/28 02:31:16;;;;;;;2.17;2.08;;;6.70;99.90;;;;;;4065408;29;20036;-92
2021/11/28 02:33:18;;;;;;;1.90;1.80;;;6.70;99.90;;;;;;4099827;28;20082;-89
2021/11/28 02:35:23;;;;;;;2.17;2.10;;;6.70;99.90;;;;;;4113133;28;20039;-89
2021/11/28 02:37:27;;;;;;;1.92;1.83;;;6.70;99.90;;;;;;4080648;29;20047;-89
2021/11/28 02:39:32;;;;;;;2.05;2.05;;;6.80;99.90;;;;;;4096328;28;20043;-88
2021/11/28 02:41:35;;;;;;;2.70;2.08;;;6.80;99.90;;;;;;4093285;29;20052;-88
2021/11/28 02:43:38;;;;;;;2.00;1.90;;;6.90;99.90;;;;;;4089805;28;20050;-89
2021/11/28 02:45:41;;;;;;;;;;;6.90;99.90;;;;;;4100287;28;20058;-89
2021/11/28 02:47:43;;;;;;;;;;;6.90;99.90;;;;;;4101296;28;20077;-89
2021/11/28 02:49:46;;;;;;;6.25;2.28;;;6.90;99.90;;;;;;4096139;29;19926;-89
2021/11/28 02:51:49;;;;;;;2.47;2.38;;;6.90;99.90;;;;;;4110813;28;20047;-89
2021/11/28 02:53:51;;;;;;;2.17;2.08;;;6.80;99.90;;;;;;4096392;29;20055;-89
2021/11/28 02:56:00;;;;;;;3.78;2.28;;;6.80;99.90;;;;;;4097167;28;20050;-89
2021/11/28 02:58:06;;;;;;;1.58;1.58;;;6.80;99.90;;;;;;4080898;29;20477;-90
2021/11/28 03:00:09;;;;;;;1.92;1.60;;;6.80;99.90;;;;;;4100273;28;20101;-89
2021/11/28 03:02:12;;;;;;;3.03;1.70;;;6.80;99.90;;;;;;4146421;28;20053;-90
2021/11/28 03:04:15;;;;;;;1.65;1.65;;;7.00;99.90;;;;;;4124685;28;20054;-89
2021/11/28 03:06:18;;;;;;;2.42;2.38;;;6.90;99.90;;;;;;4135403;28;20512;-89
2021/11/28 03:08:22;;;;;;;2.97;1.80;;;6.80;99.90;;;;;;4113741;28;20038;-89
2021/11/28 03:10:39;;;;;;;1.75;1.65;;;6.70;99.90;;;;;;4134894;28;20089;-89
2021/11/28 03:12:42;;;;;;;1.88;1.85;;;6.70;99.90;;;;;;4140019;28;20049;-89
2021/11/28 03:14:44;;;;;;;1.73;1.60;;;6.60;99.90;;;;;;4132027;28;20521;-89
2021/11/28 03:16:47;;;;;;;3.15;2.10;;;6.70;99.90;;;;;;4147646;28;20795;-89
2021/11/28 03:18:51;;;;;;;3.47;3.13;;;6.70;99.90;;;;;;4132382;28;20046;-89
2021/11/28 03:20:59;;;;;;;4.13;1.90;;;6.70;99.90;;;;;;4152537;28;20037;-89
2021/11/28 03:23:01;;;;;;;2.38;2.08;;;6.80;99.90;;;;;;4169200;28;20041;-90
2021/11/28 03:25:10;;;;;;;3.83;2.70;;;6.80;99.90;;;;;;4148064;28;20041;-89
2021/11/28 03:27:13;;;;;;;2.38;2.20;;;6.80;99.90;;;;;;4143078;28;20105;-89
2021/11/28 03:29:19;;;;;;;1.90;1.80;;;6.80;99.90;;;;;;4147260;28;20034;-89
2021/11/28 03:31:23;;;;;;;1.40;1.40;;;6.80;99.90;;;;;;4160217;28;20056;-90
2021/11/28 03:33:26;;;;;;;1.40;1.40;;;6.70;99.90;;;;;;4136907;28;20495;-89
2021/11/28 03:35:28;;;;;;;1.60;1.60;;;6.70;99.90;;;;;;4180730;28;20036;-89
2021/11/28 03:38:01;;;;;;;1.38;1.38;;;6.60;99.90;;;;;;4154110;28;20129;-90
2021/11/28 03:40:06;;;;;;;1.50;1.40;;;6.60;99.90;;;;;;4112479;28;20054;-90
2021/11/28 03:42:09;;;;;;;1.35;1.35;;;6.60;99.90;;;;;;4096244;28;20408;-89
2021/11/28 03:44:11;;;;;;;;;;;6.70;99.90;;;;;;4113021;28;20059;-89
2021/11/28 03:46:14;;;;;;;1.45;1.45;;;6.70;99.90;;;;;;4111810;28;19922;-89
2021/11/28 03:48:16;;;;;;;1.70;1.60;;;6.70;99.90;;;;;;4099334;28;20643;-89
2021/11/28 03:50:18;;;;;;;2.17;1.98;;;6.60;99.90;;;;;;4094658;29;20448;-89
2021/11/28 03:52:22;;;;;;;2.42;2.13;;;6.50;99.90;;;;;;4080630;29;20134;-89
2021/11/28 03:54:24;;;;;;;1.52;1.42;;;6.50;99.90;;;;;;4103351;28;20031;-90
2021/11/28 03:56:27;;;;;;;1.65;1.63;;;6.50;99.90;;;;;;4079212;29;20047;-89
2021/11/28 03:58:30;;;;;;;2.00;1.90;;;6.50;99.90;;;;;;4080247;29;20036;-89
2021/11/28 04:00:33;;;;;;;1.70;1.60;;;6.40;99.90;;;;;;4068380;29;20048;-89
2021/11/28 04:02:36;;;;;;;1.40;1.40;;;6.40;99.90;;;;;;4102046;28;20137;-89
2021/11/28 04:04:38;;;;;;;2.67;1.88;;;6.50;99.90;;;;;;4095847;29;20704;-89
2021/11/28 04:06:42;;;;;;;1.65;1.38;;;6.40;99.90;;;;;;4088542;28;20083;-89
2021/11/28 04:08:45;;;;;;;1.40;1.40;;;6.40;99.90;;;;;;4095434;28;20050;-88
2021/11/28 04:10:48;;;;;;;1.50;1.50;;;6.40;99.90;;;;;;4054278;29;20061;-89
2021/11/28 04:12:52;;;;;;;4.57;1.80;;;6.50;99.90;;;;;;4076551;28;20036;-89
2021/11/28 04:14:57;;;;;;;1.67;1.58;;;6.50;99.90;;;;;;4102708;28;20045;-89
2021/11/28 04:16:59;;;;;;;2.10;2.10;;;6.50;99.90;;;;;;4119975;28;20050;-88
2021/11/28 04:19:02;;;;;;;1.70;1.60;;;6.50;99.90;;;;;;4113269;28;20045;-89
2021/11/28 04:21:04;;;;;;;2.85;1.92;;;6.50;99.90;;;;;;4119752;28;20081;-89
2021/11/28 04:23:06;;;;;;;2.70;1.70;;;6.40;99.90;;;;;;4123965;28;20050;-89
2021/11/28 04:25:12;;;;;;;4.93;1.90;;;6.30;99.90;;;;;;4097238;28;20519;-89
2021/11/28 04:27:15;;;;;;;4.13;1.98;;;6.30;99.90;;;;;;4123973;28;20041;-88
2021/11/28 04:29:18;;;;;;;1.77;1.67;;;6.40;99.90;;;;;;4143746;28;20080;-89
2021/11/28 04:31:20;;;;;;;2.40;2.20;;;6.40;99.90;;;;;;4110732;28;20513;-89
2021/11/28 04:33:23;;;;;;;3.20;2.38;;;6.40;99.90;;;;;;4123418;28;20090;-89
2021/11/28 04:35:25;;;;;;;3.10;2.42;;;6.40;99.90;;;;;;4098045;28;20092;-89
2021/11/28 04:37:28;;;;;;;2.33;2.17;;;6.40;99.90;;;;;;4129745;28;20043;-88
2021/11/28 04:39:33;;;;;;;2.40;2.03;;;6.40;99.90;;;;;;4087748;29;20424;-89
2021/11/28 04:41:35;;;;;;;2.08;1.98;;;6.40;99.90;;;;;;4140141;28;20038;-88
2021/11/28 04:44:05;;;;;;;2.72;2.03;;;6.40;99.90;;;;;;4118661;28;20129;-89
2021/11/28 04:46:07;;;;;;;2.30;2.10;;;6.40;99.90;;;;;;4087298;29;20660;-89
2021/11/28 04:48:11;;;;;;;1.90;1.80;;;6.40;99.90;;;;;;4090429;28;20552;-89
2021/11/28 04:50:14;;;;;;;1.88;1.88;;;6.40;99.90;;;;;;4086606;29;20135;-88
2021/11/28 04:52:18;;;;;;;2.00;1.90;;;6.30;99.90;;;;;;4066192;29;20052;-88
2021/11/28 04:54:22;;;;;;;3.17;2.10;;;6.10;99.90;;;;;;4069639;29;20036;-88
2021/11/28 04:56:27;;;;;;;2.28;2.10;;;6.20;99.90;;;;;;4083336;29;20035;-89
2021/11/28 04:58:29;;;;;;;1.98;1.85;;;6.10;99.90;;;;;;4063993;29;20693;-88
2021/11/28 05:00:31;;;;;;;2.20;2.03;;;6.00;99.90;;;;;;4075957;29;20056;-89
2021/11/28 05:02:34;;;;;;;4.38;1.83;;;6.10;99.90;;;;;;4079803;29;20050;-88
2021/11/28 05:04:36;;;;;;;1.60;1.50;;;6.10;99.90;;;;;;4067546;29;20067;-88
2021/11/28 05:06:39;;;;;;;2.55;2.00;;;6.00;99.90;;;;;;4095860;28;20126;-88
2021/11/28 05:08:43;;;;;;;1.95;1.85;;;5.90;99.90;;;;;;4065220;29;20037;-88
2021/11/28 05:10:47;;;;;;;1.90;1.80;;;6.00;99.90;;;;;;4065049;29;20059;-88
2021/11/28 05:12:50;;;;;;;2.13;2.03;;;6.10;99.90;;;;;;4084436;29;20039;-88
2021/11/28 05:14:53;;;;;;;4.10;2.88;;;6.10;99.90;;;;;;4079687;29;20102;-88
2021/11/28 05:16:57;;;;;;;1.40;1.38;;;6.00;99.90;;;;;;4075559;29;20047;-88
2021/11/28 05:19:00;;;;;;;3.75;1.63;;;6.00;99.90;;;;;;4093831;29;20054;-88
2021/11/28 05:21:04;;;;;;;2.33;2.10;;;5.90;99.90;;;;;;4074415;29;20089;-89
2021/11/28 05:23:07;;;;;;;3.88;2.92;;;5.80;99.90;;;;;;4086099;28;20113;-87
2021/11/28 05:25:10;;;;;;;2.25;2.15;;;5.80;99.90;;;;;;4127581;28;20038;-89
2021/11/28 05:27:12;;;;;;;;;;;5.70;99.90;;;;;;4099125;28;20056;-88
2021/11/28 05:29:14;;;;;;;2.75;2.50;;;5.70;99.90;;;;;;4126694;28;20919;-89
2021/11/28 05:31:19;;;;;;;2.55;2.20;;;5.80;99.90;;;;;;4094906;28;20126;-88
2021/11/28 05:33:22;;;;;;;2.17;2.08;;;5.90;99.90;;;;;;4111315;28;20035;-88
2021/11/28 05:35:24;;;;;;;2.05;2.05;;;6.20;99.90;;;;;;4111390;28;20384;-88
2021/11/28 05:37:28;;;;;;;;;;;6.20;99.90;;;;;;4102117;28;20070;-88
2021/11/28 05:39:31;;;;;;;;;;;6.10;99.90;;;;;;4113326;28;20382;-89
2021/11/28 05:41:34;;;;;;;3.42;1.90;;;6.00;99.90;;;;;;4127013;28;19986;-90
2021/11/28 05:43:39;;;;;;;3.50;1.90;;;6.10;99.90;;;;;;4092928;28;20039;-88
2021/11/28 05:45:42;;;;;;;2.05;1.95;;;5.80;99.90;;;;;;4112074;28;20104;-88
2021/11/28 05:47:44;;;;;;;2.95;2.75;;;6.00;99.90;;;;;;4102418;28;20046;-88
2021/11/28 05:49:48;;;;;;;4.90;3.30;;;6.20;99.90;;;;;;4143568;28;20048;-88
2021/11/28 05:51:50;;;;;;;4.68;2.45;;;6.40;99.90;;;;;;4165895;28;20040;-88
2021/11/28 05:53:52;;;;;;;3.20;2.67;;;6.40;99.90;;;;;;4160352;28;20088;-88
2021/11/28 05:55:54;;;;;;;3.15;2.10;;;6.20;99.90;;;;;;4143528;28;20083;-88
2021/11/28 05:57:58;;;;;;;5.72;2.17;;;6.00;99.90;;;;;;4143983;28;20070;-88
2021/11/28 06:00:02;;;;;;;2.80;2.45;;;5.80;99.90;;;;;;4126298;28;20046;-89
2021/11/28 06:02:05;;;;;;;5.75;4.00;;;5.60;99.90;;;;;;4160155;28;20536;-88
2021/11/28 06:04:07;;;;;;;3.97;3.60;;;5.60;99.90;;;;;;4142412;28;20052;-89
2021/11/28 06:06:09;;;;;;;7.60;3.55;;;5.60;99.90;;;;;;4159789;28;20116;-88
2021/11/28 06:08:12;;;;;;;3.05;2.90;;;5.60;99.90;;;;;;4181636;28;20043;-89
2021/11/28 06:10:14;;;;;;;2.80;2.60;;;5.50;99.90;;;;;;4141010;28;20125;-88
2021/11/28 06:12:16;;;;;;;2.65;2.53;;;5.60;99.90;;;;;;4144776;28;20038;-89
2021/11/28 06:14:18;;;;;;;3.58;3.28;;;5.70;99.90;;;;;;4128512;28;20042;-89
2021/11/28 06:16:22;;;;;;;2.15;2.00;;;5.70;99.90;;;;;;4162589;28;20149;-89
2021/11/28 06:18:25;;;;;;;2.97;2.75;;;5.70;99.90;;;;;;4141969;28;20129;-88
2021/11/28 06:20:29;;;;;;;5.50;2.90;;;5.80;99.90;;;;;;4128161;28;20453;-88
2021/11/28 06:22:32;;;;;;;3.10;2.88;;;5.70;99.90;;;;;;4152552;28;20041;-88
2021/11/28 06:24:35;;;;;;;3.60;2.25;;;5.70;99.90;;;;;;4161329;28;20374;-88
2021/11/28 06:26:37;;;;;;;3.90;2.47;;;5.60;99.90;;;;;;4156069;28;20129;-88
2021/11/28 06:28:41;;;;;;;3.28;3.03;;;5.50;99.90;;;;;;4147097;28;20040;-88
2021/11/28 06:30:44;;;;;;;2.63;2.40;;;5.50;99.90;;;;;;4159751;28;20041;-87
2021/11/28 06:32:47;;;;;;;2.47;2.28;;;5.70;99.90;;;;;;4147229;28;20044;-88
2021/11/28 06:34:49;;;;;;;3.33;2.55;;;5.90;99.90;;;;;;4180654;28;20400;-88
2021/11/28 06:36:54;;;;;;;3.60;2.65;;;6.20;99.90;;;;;;4161543;28;20131;-88
2021/11/28 06:38:56;;;;;;;3.00;2.28;;;6.30;99.90;;;;;;4145426;28;20042;-88
2021/11/28 06:40:58;;;;;;;2.92;2.40;;;6.20;99.90;;;;;;4144408;28;20706;-87
2021/11/28 06:43:00;;;;;;;4.40;2.40;;;6.00;99.90;;;;;;4130517;28;20042;-88
2021/11/28 06:45:04;;;;;;;5.07;2.58;;;5.90;99.90;;;;;;4162390;28;20059;-88
2021/11/28 06:47:19;;;;;;;3.20;2.28;;;5.90;99.90;;;;;;4146909;28;20133;-88
2021/11/28 06:49:21;;;;;;;5.55;2.60;;;6.10;99.90;;;;;;4147016;28;20407;-88
2021/11/28 06:51:24;;;;;;;3.10;2.83;;;6.00;99.90;;;;;;4146178;28;20046;-88
2021/11/28 06:53:53;;;;;;;3.17;3.08;;;5.90;99.90;;;;;;4146658;28;20026;-88
2021/11/28 06:55:56;;;;;;;5.68;4.75;;;5.80;99.90;;;;;;4113140;28;20043;-88
2021/11/28 06:57:59;;;;;;;6.63;2.90;;;5.70;99.90;;;;;;4128521;28;20042;-88
2021/11/28 07:00:05;;;;;;;3.90;3.60;;;5.70;99.90;;;;;;4096066;28;20127;-88
2021/11/28 07:02:07;;;;;;;3.95;2.85;;;5.80;99.90;;;;;;4128572;28;20093;-88
2021/11/28 07:04:10;;;;;;;6.45;2.50;;;5.90;99.90;;;;;;4097132;29;20134;-88
2021/11/28 07:06:13;;;;;;;3.80;3.38;;;5.80;99.90;;;;;;4121813;28;20467;-88
2021/11/28 07:08:15;;;;;;;4.35;3.05;;;5.70;99.90;;;;;;4096875;29;20654;-87
2021/11/28 07:10:18;;;;;;;3.83;3.53;;;5.70;99.90;;;;;;4096580;28;20047;-89
2021/11/28 07:12:21;;;;;;;3.92;3.22;;;5.70;99.90;;;;;;4114072;28;20081;-88
2021/11/28 07:14:24;;;;;;;5.82;4.35;;;5.70;99.90;;;;;;4112522;28;20079;-88
2021/11/28 07:16:27;;;;;;;2.42;2.33;;;5.60;99.90;;;;;;4129279;28;20051;-88
2021/11/28 07:18:29;;;;;;;5.97;2.47;;;5.50;99.90;;;;;;4095107;28;20492;-88
2021/11/28 07:20:34;;;;;;;2.95;2.88;;;5.50;99.90;;;;;;4128474;28;20734;-89
2021/11/28 07:22:38;;;;;;;3.67;3.38;;;5.60;99.90;;;;;;4128787;28;20042;-88
2021/11/28 07:24:40;;;;;;;3.60;3.22;;;6.10;99.90;;;;;;4096929;28;20515;-88
2021/11/28 07:27:09;;;;;;;8.23;3.53;;;6.10;99.90;;;;;;4110649;28;20050;-88
2021/11/28 07:29:12;;;;;;;3.72;2.55;;;6.00;99.90;;;;;;4035984;29;20060;-88
2021/11/28 07:31:15;;;;;;;3.42;2.15;;;5.90;99.90;;;;;;4033962;29;20112;-88
2021/11/28 07:33:17;;;;;;;5.63;3.10;;;5.90;99.90;;;;;;4068919;29;20071;-88
2021/11/28 07:35:20;;;;;;;5.35;4.95;;;5.90;99.90;;;;;;4071381;29;20382;-88
2021/11/28 07:37:23;;;;;;;14.85;5.18;;;5.90;99.90;;;;;;4082599;29;20047;-87
2021/11/28 07:39:25;;;;;;;9.20;4.72;;;5.90;99.90;;;;;;4096317;28;20050;-87
2021/11/28 07:41:28;;;;;;;3.65;3.13;;;5.90;99.90;;;;;;4085800;29;20090;-87
2021/11/28 07:43:31;;;;;;;4.03;2.20;;;5.90;99.90;;;;;;4075181;29;20080;-88
2021/11/28 07:45:35;;;;;;;5.82;2.83;;;5.90;99.90;;;;;;4081663;29;20083;-88
2021/11/28 07:47:38;;;;;;;3.80;2.33;;;5.90;99.90;;;;;;4064509;29;20132;-87
2021/11/28 07:49:40;;;;;;;4.25;3.03;;;5.90;99.90;;;;;;4049109;29;20517;-88
2021/11/28 07:51:43;;;;;;;8.52;3.95;;;6.00;99.90;;;;;;4083009;29;20040;-88
2021/11/28 07:53:46;;;;;;;6.53;3.42;;;6.10;99.90;;;;;;4078123;29;20059;-88
2021/11/28 07:55:48;;;;;;;6.38;4.22;;;6.10;99.90;;;;;;4061284;29;20041;-88
2021/11/28 07:57:51;;;;;;;8.23;4.07;;;6.20;99.90;;;;;;4081002;29;20047;-88
2021/11/28 07:59:55;;;;;;;6.35;4.53;;;6.20;99.90;;;;;;4081770;29;20069;-89
2021/11/28 08:02:00;;;;;;;5.47;3.55;;;6.30;99.90;;;;;;4080890;29;20099;-88
2021/11/28 08:04:04;;;;;;;2.83;2.72;;;6.30;99.90;;;;;;4075401;29;20048;-90
2021/11/28 08:06:06;;;;;;;11.80;4.30;;;6.30;99.90;;;;;;4105933;28;20123;-89
2021/11/28 08:08:10;;;;;;;4.15;3.90;;;6.30;99.90;;;;;;4154285;28;20047;-90
2021/11/28 08:10:15;;;;;;;6.97;3.78;;;6.30;99.90;;;;;;4128215;28;20030;-90
2021/11/28 08:12:44;;;;;;;3.92;3.60;;;6.30;99.90;;;;;;4160897;28;20041;-90
2021/11/28 08:14:49;;;;;;;10.85;4.75;;;6.40;99.90;;;;;;4095536;28;20054;-90
2021/11/28 08:16:52;;;;;;;7.05;2.60;;;6.40;99.90;;;;;;4064105;29;20067;-90
2021/11/28 08:18:54;;;;;;;8.80;3.60;;;6.50;99.90;;;;;;4078678;29;20099;-90
2021/11/28 08:20:57;;;;;;;4.90;4.35;;;6.50;99.90;;;;;;4064238;29;20044;-91
2021/11/28 08:22:59;;;;;;;;;;;6.50;99.90;;;;;;4079174;29;20043;-90
2021/11/28 08:25:03;;;;;;;4.00;3.63;;;6.50;99.90;;;;;;4078117;29;19952;-91
2021/11/28 08:27:06;;;;;;;11.07;2.92;;;6.50;99.90;;;;;;4066300;29;20700;-90
2021/11/28 08:29:08;;;;;;;7.50;4.55;;;6.50;99.90;;;;;;4093819;28;20042;-89
2021/11/28 08:31:11;;;;;;;3.63;2.50;;;6.50;99.90;;;;;;4094045;29;20039;-89
2021/11/28 08:33:14;;;;;;;4.63;2.70;;;6.60;99.90;;;;;;4080479;29;20151;-90
2021/11/28 08:35:43;;;;;;;5.30;3.40;;;6.60;99.90;;;;;;4063681;29;20036;-91
2021/11/28 08:37:46;;;;;;;5.43;3.53;;;6.70;99.90;;;;;;4001758;29;20054;-89
2021/11/28 08:39:48;;;;;;;2.40;2.20;;;6.70;99.90;;;;;;3988737;29;20047;-90
2021/11/28 08:41:51;;;;;;;6.20;3.45;;;6.90;99.90;;;;;;4016838;29;20081;-88
2021/11/28 08:43:56;;;;;;;2.97;2.65;;;7.10;99.90;;;;;;4017540;29;20045;-91
2021/11/28 08:45:58;;;;;;;4.78;3.90;;;7.10;99.90;;;;;;4016804;29;20423;-91
2021/11/28 08:48:00;;;;;;;4.18;3.97;;;7.20;99.90;;;;;;4015955;29;20216;-91
2021/11/28 08:50:05;;;;;;;5.75;3.00;;;7.20;99.90;;;;;;4018863;29;20095;-91
2021/11/28 08:52:08;;;;;;;5.20;4.05;;;7.20;99.90;;;;;;4034620;29;20055;-90
2021/11/28 08:54:13;;;;;;;4.95;3.28;;;7.20;99.90;;;;;;4074252;29;20040;-90
2021/11/28 08:56:16;;;;;;;3.67;3.38;;;7.20;99.90;;;;;;4032586;29;20055;-90
2021/11/28 08:58:20;;;;;;;4.47;3.58;;;7.20;99.90;;;;;;4064176;29;20052;-90
2021/11/28 09:00:23;;;;;;;3.47;3.13;;;7.20;99.90;;;;;;4033961;29;20533;-90
2021/11/28 09:02:25;;;;;;;6.03;4.53;;;7.30;99.90;;;;;;4076566;29;20547;-93
2021/11/28 09:04:29;;;;;;;5.13;3.53;;;7.40;99.90;;;;;;4061498;29;20055;-90
2021/11/28 09:06:32;;;;;;;7.00;3.97;;;7.30;99.90;;;;;;4047659;29;20127;-90
2021/11/28 09:08:38;;;;;;;3.10;2.83;;;7.20;99.90;;;;;;4086807;28;20100;-89
2021/11/28 09:10:41;;;;;;;2.88;2.67;;;7.30;99.90;;;;;;4106778;28;20164;-89
2021/11/28 09:12:45;;;;;;;2.45;2.00;;;7.20;99.90;;;;;;4108985;28;20045;-90
2021/11/28 09:14:47;;;;;;;2.55;2.20;;;7.20;99.90;;;;;;4128663;28;20052;-89
2021/11/28 09:17:16;;;;;;;4.82;3.55;;;7.30;99.90;;;;;;4121659;28;20525;-90
2021/11/28 09:19:28;;;;;;;91.55;7.90;;;7.40;99.90;;;;;;4064100;29;20127;-88
2021/11/28 09:21:31;;;;;;;5.15;2.15;;;7.50;99.90;;;;;;4047601;29;20048;-90
2021/11/28 09:25:56;;;;;;;32.13;4.53;;;7.50;99.90;;;;;;4065425;29;20054;-90
2021/11/28 09:28:01;;;;;;;6.90;5.13;;;7.50;99.90;;;;;;4041860;29;20040;-89
2021/11/28 09:30:04;;;;;;;11.90;2.40;;;7.60;99.90;;;;;;4061403;29;20052;-90
2021/11/28 09:32:08;;;;;;;4.20;1.80;;;7.60;99.90;;;;;;4085660;29;20039;-88
2021/11/28 09:34:10;;;;;;;3.25;2.78;;;7.60;99.90;;;;;;4080593;29;20047;-88
2021/11/28 09:36:13;;;;;;;6.15;3.45;;;7.70;99.90;;;;;;4063704;29;20036;-89
2021/11/28 09:38:17;;;;;;;6.47;3.13;;;7.70;99.90;;;;;;4065820;29;20043;-88
2021/11/28 09:40:20;;;;;;;10.25;4.97;;;7.80;99.90;;;;;;4058474;29;20044;-88
2021/11/28 09:42:29;;;;;;;6.75;4.45;;;7.70;99.90;;;;;;4078032;29;20055;-88
2021/11/28 09:44:36;;;;;;;6.20;3.22;;;7.60;99.90;;;;;;4075707;29;20536;-89
2021/11/28 09:46:39;;;;;;;13.18;8.88;;;7.70;99.90;;;;;;4048620;29;20041;-88
2021/11/28 09:48:44;;;;;;;2.92;2.28;;;7.80;99.90;;;;;;4171988;22;20057;-51
2021/11/28 09:50:47;;;;;;;4.18;3.92;;;7.90;99.90;;;;;;4176540;28;20029;-51
2021/11/28 09:53:12;;;;;;;7.00;4.03;;;8.00;99.90;;;;;;4172529;28;20045;-53
2021/11/28 09:55:14;;;;;;;3.53;2.60;;;8.00;99.90;;;;;;4176497;28;20045;-51
2021/11/28 09:57:19;;;;;;;4.35;3.53;;;8.00;99.90;;;;;;4176913;28;20041;-53
2021/11/28 09:59:22;;;;;;;2.45;2.35;;;8.10;99.90;;;;;;4176274;28;20724;-53
2021/11/28 10:01:24;;;;;;;;;;;8.20;99.90;;;;;;4174366;28;20040;-53
2021/11/28 10:03:27;;;;;;;2.28;1.75;;;8.20;99.90;;;;;;4175261;28;19931;-52
2021/11/28 10:05:29;;;;;;;9.13;3.58;;;8.30;99.90;;;;;;4174942;28;20099;-52
2021/11/28 10:07:32;;;;;;;4.63;2.22;;;8.40;99.90;;;;;;4174711;28;20056;-53
2021/11/28 10:09:34;;;;;;;4.45;2.78;;;8.50;99.90;;;;;;4156756;28;20405;-52
2021/11/28 10:11:43;;;;;;;4.30;4.00;;;8.80;99.90;;;;;;4161738;28;20033;-51
2021/11/28 10:13:48;;;;;;;3.25;2.28;;;8.90;99.90;;;;;;4175207;28;20041;-53
2021/11/28 10:15:51;;;;;;;6.05;1.95;;;8.80;99.90;;;;;;4175758;28;20436;-53
2021/11/28 10:17:53;;;;;;;3.95;1.50;;;8.70;99.90;;;;;;4176985;28;20032;-50
2021/11/28 10:20:01;;;;;;;2.20;1.98;;;8.90;99.90;;;;;;4179772;28;20128;-52
2021/11/28 10:22:04;;;;;;;1.95;1.55;;;9.00;99.90;;;;;;4161515;28;20037;-53
2021/11/28 10:24:11;;;;;;;4.25;3.10;;;9.00;99.90;;;;;;4178806;28;20051;-49
2021/11/28 10:26:14;;;;;;;6.93;1.85;;;9.00;99.90;;;;;;4179587;28;20040;-54
2021/11/28 10:28:19;;;;;;;4.32;1.98;;;8.70;99.90;;;;;;4161805;28;20045;-52
2021/11/28 10:30:27;;;;;;;3.22;1.48;;;8.60;99.90;;;;;;4179304;28;20516;-53
2021/11/28 10:32:29;;;;;;;3.92;2.05;;;8.70;99.90;;;;;;4179923;28;20091;-51
2021/11/28 10:34:36;;;;;;;2.88;2.15;;;8.80;99.90;;;;;;4161759;28;20037;-53
2021/11/28 10:36:39;;;;;;;2.40;1.48;;;8.90;99.90;;;;;;4178362;28;20896;-52
2021/11/28 10:38:44;;;;;;;3.58;1.98;;;8.70;99.90;;;;;;4179442;28;20443;-52
2021/11/28 10:40:46;;;;;;;4.28;4.03;;;8.50;99.90;;;;;;4176287;28;20041;-53
2021/11/28 10:42:50;;;;;;;11.50;6.30;;;8.60;99.90;;;;;;4171445;28;20067;-52
2021/11/28 10:45:21;;;;;;;4.20;2.55;;;8.80;99.90;;;;;;4178561;28;20041;-53
2021/11/28 10:47:52;;;;;;;2.83;2.50;;;9.00;99.90;;;;;;4178996;28;20091;-52
2021/11/28 10:49:55;;;;;;;2.05;1.90;;;9.00;99.90;;;;;;4192662;28;20082;-54
2021/11/28 10:52:12;;;;;;;2.22;1.63;;;8.70;99.90;;;;;;4195393;28;20765;-52
2021/11/28 10:54:23;;;;;;;5.97;2.90;;;8.30;99.90;;;;;;4193407;28;20036;-53
2021/11/28 10:56:25;;;;;;;5.57;2.28;;;8.20;99.90;;;;;;4194576;28;20044;-53
2021/11/28 10:58:30;;;;;;;5.35;2.85;;;8.20;99.90;;;;;;4194953;28;20488;-53
2021/11/28 11:00:39;;;;;;;7.65;2.83;;;8.20;99.90;;;;;;4196071;28;20037;-51
2021/11/28 11:02:42;;;;;;;5.40;2.55;;;8.10;99.90;;;;;;4194451;28;20033;-53
2021/11/28 11:04:44;;;;;;;2.30;2.13;;;8.10;99.90;;;;;;4195955;28;20040;-52
2021/11/28 11:07:07;;;;;;;11.77;6.93;;;8.10;99.90;;;;;;4194907;28;20045;-53